Aérodrome :
LOGIN :

S'inscrire | Disclaimer

   EN    FR    IT 

 










Légende :    VFR   VFR Marginal   IFR   IFR Intensif   IFR Très Intensif
Visi : 
Plafond : 
>= 8 km
>= 3000ft
5 à 8 km
1000 à 3000 ft
1500m à 5 km
500 à 1000 ft
800 à 1500m
200 à 500 ft
< 800m
< 200 ft
Symboles :   Orages  Brouillard  Fortes neiges  Fortes précipitations  Vent > 20 kt
SIGMETs :   Divers  Orages  Givrage  Turbulence  Onde Orograph.  Cendres Volcan.






- Altitude de l'aérodrome : 218 ft
- Code IATA : LBG


LFPB - Paris / Le Bourget

DERNIER METAR :
  • 260530Z AUTO VRB02KT 1200 0900 R27/P2000 R09/1100U R07/1200U BCFG FEW002 07/07 Q1022 TEMPO 0400 FG VV///

METARs EXPIRÉS :
  • 260500Z AUTO 13003KT 0700 0450 R27/P2000 R09/1100D R07/0750U FG FEW003 07/07 Q1022 TEMPO 0400 FG VV///
  • 260430Z AUTO 16002KT 9999 1200 R27/1900U R09/P2000 R07/P2000 NSC 07/07 Q1022 TEMPO 0400 FG VV///
  • 260400Z AUTO 20004KT 9999 2100 NSC 07/07 Q1022 TEMPO 0400 FG VV///
  • 260330Z AUTO 20002KT 6000 NSC 07/07 Q1022 TEMPO 0400 FG VV///
  • 260300Z AUTO 21003KT 1700 0800 R27/1600D R09/P2000 R07/1700U BCFG NSC 07/07 Q1021 TEMPO 0400 FG VV///

TAF TAF LFPB
Valide du 26 à 06h jusqu'au 27 à 06h UTC


260500Z 2606/2706 20005KT 0800 FG BKN002
TEMPO 2606/2608 0400 FG VV///
BECMG 2608/2610 8000 NSW BKN010
BECMG 2612/2614 BKN020
BECMG 2701/2703 4000 BR
PROB40
TEMPO 2704/2706 0400 FG VV///
ATIS : +33 1 48 62 43 92



MET'MAP, la Météo Aéronautique d'un coup d'oeil ! - Copyright ORBIFLY Décembre 2007 - Disclaimer

ORBIFLY MET'MAP TEAM :

Programmation & Développement : Alexandra Zaïnal
Sur une idée originale de : Baudouin d'Aumeries
Assistance à la programmation : Marc-Olivier Méhu
Soutien technique & logistique : Manuel Goepfert

Contact : metmap@orbifly.com




SOURCES & CREDITS :

   NOAA